Terminal Aerodrome Forecast
Issued by NWS

Current Version | Previous Version | Text Only | Print | Product List | Glossary Off
Versions: 1 2 3 4 5 6 7 8 9 10 11 12 13

287
FTUS41 KILN 241136
TAFLCK
TAF
KLCK 241136Z 2412/2512 19009KT P6SM BKN120 WS020/22040KT
     FM241500 21014G22KT P6SM SCT040 BKN150
     FM241900 21015G23KT P6SM BKN040
     FM242300 21011G17KT P6SM BKN060
     FM250100 20007KT P6SM BKN070
     FM251100 18006KT P6SM OVC080=

USA.gov is the U.S. government's official web portal to all federal, state and local government web resources and services.